sensor_id;sensor_type;location;lat;lon;timestamp;P1;durP1;ratioP1;P2;durP2;ratioP2
17340;SDS011;8788;49.930;8.660;2024-02-15T00:00:51;6.43;;;2.83;;
17340;SDS011;8788;49.930;8.660;2024-02-15T00:03:19;7.07;;;3.35;;
17340;SDS011;8788;49.930;8.660;2024-02-15T00:05:48;4.30;;;2.88;;
17340;SDS011;8788;49.930;8.660;2024-02-15T00:08:15;5.55;;;3.10;;
17340;SDS011;8788;49.930;8.660;2024-02-15T00:10:42;4.22;;;2.60;;
17340;SDS011;8788;49.930;8.660;2024-02-15T00:13:11;3.97;;;2.38;;
17340;SDS011;8788;49.930;8.660;2024-02-15T00:15:38;3.80;;;2.50;;
17340;SDS011;8788;49.930;8.660;2024-02-15T00:18:05;4.60;;;2.40;;
17340;SDS011;8788;49.930;8.660;2024-02-15T00:20:33;3.38;;;2.70;;
17340;SDS011;8788;49.930;8.660;2024-02-15T00:23:01;3.78;;;2.40;;
17340;SDS011;8788;49.930;8.660;2024-02-15T00:25:29;4.80;;;2.90;;
17340;SDS011;8788;49.930;8.660;2024-02-15T00:27:56;6.63;;;2.78;;
17340;SDS011;8788;49.930;8.660;2024-02-15T00:30:25;2.33;;;2.08;;
17340;SDS011;8788;49.930;8.660;2024-02-15T00:32:53;5.65;;;2.92;;
17340;SDS011;8788;49.930;8.660;2024-02-15T00:35:20;7.35;;;2.97;;
17340;SDS011;8788;49.930;8.660;2024-02-15T00:37:47;5.13;;;2.53;;
17340;SDS011;8788;49.930;8.660;2024-02-15T00:40:16;4.50;;;2.47;;
17340;SDS011;8788;49.930;8.660;2024-02-15T00:42:44;5.70;;;2.50;;
17340;SDS011;8788;49.930;8.660;2024-02-15T00:45:11;3.80;;;3.20;;
17340;SDS011;8788;49.930;8.660;2024-02-15T00:47:38;3.97;;;2.40;;
17340;SDS011;8788;49.930;8.660;2024-02-15T00:50:07;5.57;;;2.30;;
17340;SDS011;8788;49.930;8.660;2024-02-15T00:52:35;3.92;;;2.70;;
17340;SDS011;8788;49.930;8.660;2024-02-15T00:55:02;5.35;;;2.90;;
17340;SDS011;8788;49.930;8.660;2024-02-15T00:57:31;6.05;;;2.47;;
17340;SDS011;8788;49.930;8.660;2024-02-15T00:59:58;7.55;;;2.45;;
17340;SDS011;8788;49.930;8.660;2024-02-15T01:02:27;2.92;;;2.60;;
17340;SDS011;8788;49.930;8.660;2024-02-15T01:04:54;3.30;;;2.53;;
17340;SDS011;8788;49.930;8.660;2024-02-15T01:07:24;8.00;;;2.88;;
17340;SDS011;8788;49.930;8.660;2024-02-15T01:09:53;2.75;;;2.53;;
17340;SDS011;8788;49.930;8.660;2024-02-15T01:12:20;5.30;;;2.72;;
17340;SDS011;8788;49.930;8.660;2024-02-15T01:14:48;4.15;;;2.65;;
17340;SDS011;8788;49.930;8.660;2024-02-15T01:17:15;5.65;;;2.80;;
17340;SDS011;8788;49.930;8.660;2024-02-15T01:19:42;3.75;;;2.53;;
17340;SDS011;8788;49.930;8.660;2024-02-15T01:22:10;4.75;;;2.33;;
17340;SDS011;8788;49.930;8.660;2024-02-15T01:24:38;4.28;;;2.25;;
17340;SDS011;8788;49.930;8.660;2024-02-15T01:27:05;4.15;;;2.28;;
17340;SDS011;8788;49.930;8.660;2024-02-15T01:29:32;5.75;;;2.65;;
17340;SDS011;8788;49.930;8.660;2024-02-15T01:32:01;5.03;;;2.90;;
17340;SDS011;8788;49.930;8.660;2024-02-15T01:34:28;3.70;;;2.75;;
17340;SDS011;8788;49.930;8.660;2024-02-15T01:36:55;3.67;;;2.33;;
17340;SDS011;8788;49.930;8.660;2024-02-15T01:39:22;3.40;;;2.58;;
17340;SDS011;8788;49.930;8.660;2024-02-15T01:41:49;7.07;;;2.88;;
17340;SDS011;8788;49.930;8.660;2024-02-15T01:44:20;4.30;;;2.20;;
17340;SDS011;8788;49.930;8.660;2024-02-15T01:46:50;4.45;;;2.85;;
17340;SDS011;8788;49.930;8.660;2024-02-15T01:49:20;4.03;;;2.92;;
17340;SDS011;8788;49.930;8.660;2024-02-15T01:51:48;4.65;;;2.60;;
17340;SDS011;8788;49.930;8.660;2024-02-15T01:54:17;5.72;;;3.15;;
17340;SDS011;8788;49.930;8.660;2024-02-15T01:56:45;5.97;;;2.83;;
17340;SDS011;8788;49.930;8.660;2024-02-15T01:59:14;4.45;;;3.58;;
17340;SDS011;8788;49.930;8.660;2024-02-15T02:01:42;4.40;;;2.80;;
17340;SDS011;8788;49.930;8.660;2024-02-15T02:04:10;4.50;;;2.70;;
17340;SDS011;8788;49.930;8.660;2024-02-15T02:06:39;4.90;;;2.63;;
17340;SDS011;8788;49.930;8.660;2024-02-15T02:09:06;6.05;;;3.28;;
17340;SDS011;8788;49.930;8.660;2024-02-15T02:11:36;7.97;;;2.80;;
17340;SDS011;8788;49.930;8.660;2024-02-15T02:14:03;6.10;;;2.88;;
17340;SDS011;8788;49.930;8.660;2024-02-15T02:16:31;4.93;;;2.95;;
17340;SDS011;8788;49.930;8.660;2024-02-15T02:19:06;5.15;;;2.80;;
17340;SDS011;8788;49.930;8.660;2024-02-15T02:21:34;3.17;;;2.72;;
17340;SDS011;8788;49.930;8.660;2024-02-15T02:24:07;4.68;;;2.58;;
17340;SDS011;8788;49.930;8.660;2024-02-15T02:26:40;4.22;;;2.60;;
17340;SDS011;8788;49.930;8.660;2024-02-15T02:29:09;5.03;;;3.00;;
17340;SDS011;8788;49.930;8.660;2024-02-15T02:31:36;3.20;;;2.90;;
17340;SDS011;8788;49.930;8.660;2024-02-15T02:34:03;3.50;;;2.55;;
17340;SDS011;8788;49.930;8.660;2024-02-15T02:36:31;3.72;;;2.67;;
17340;SDS011;8788;49.930;8.660;2024-02-15T02:38:58;9.07;;;2.97;;
17340;SDS011;8788;49.930;8.660;2024-02-15T02:41:26;4.13;;;2.50;;
17340;SDS011;8788;49.930;8.660;2024-02-15T02:43:56;5.60;;;2.20;;
17340;SDS011;8788;49.930;8.660;2024-02-15T02:46:23;4.53;;;2.83;;
17340;SDS011;8788;49.930;8.660;2024-02-15T02:48:50;3.80;;;2.15;;
17340;SDS011;8788;49.930;8.660;2024-02-15T02:51:18;4.75;;;2.35;;
17340;SDS011;8788;49.930;8.660;2024-02-15T02:53:45;5.03;;;2.30;;
17340;SDS011;8788;49.930;8.660;2024-02-15T02:56:12;3.55;;;2.53;;
17340;SDS011;8788;49.930;8.660;2024-02-15T02:58:39;2.58;;;2.28;;
17340;SDS011;8788;49.930;8.660;2024-02-15T03:01:08;5.75;;;2.40;;
17340;SDS011;8788;49.930;8.660;2024-02-15T03:03:36;4.53;;;2.50;;
17340;SDS011;8788;49.930;8.660;2024-02-15T03:06:04;5.10;;;2.42;;
17340;SDS011;8788;49.930;8.660;2024-02-15T03:08:32;3.38;;;2.30;;
17340;SDS011;8788;49.930;8.660;2024-02-15T03:10:59;4.85;;;2.58;;
17340;SDS011;8788;49.930;8.660;2024-02-15T03:13:26;4.57;;;2.80;;
17340;SDS011;8788;49.930;8.660;2024-02-15T03:15:53;7.28;;;2.53;;
17340;SDS011;8788;49.930;8.660;2024-02-15T03:18:21;8.15;;;2.45;;
17340;SDS011;8788;49.930;8.660;2024-02-15T03:20:49;4.15;;;2.08;;
17340;SDS011;8788;49.930;8.660;2024-02-15T03:23:16;4.30;;;2.50;;
17340;SDS011;8788;49.930;8.660;2024-02-15T03:25:43;3.30;;;2.40;;
17340;SDS011;8788;49.930;8.660;2024-02-15T03:28:10;3.90;;;2.33;;
17340;SDS011;8788;49.930;8.660;2024-02-15T03:30:37;4.43;;;2.67;;
17340;SDS011;8788;49.930;8.660;2024-02-15T03:33:04;5.45;;;2.72;;
17340;SDS011;8788;49.930;8.660;2024-02-15T03:35:33;4.43;;;2.20;;
17340;SDS011;8788;49.930;8.660;2024-02-15T03:38:00;7.65;;;2.30;;
17340;SDS011;8788;49.930;8.660;2024-02-15T03:40:27;4.22;;;2.53;;
17340;SDS011;8788;49.930;8.660;2024-02-15T03:42:55;4.88;;;2.42;;
17340;SDS011;8788;49.930;8.660;2024-02-15T03:45:22;4.60;;;2.25;;
17340;SDS011;8788;49.930;8.660;2024-02-15T03:47:50;4.28;;;2.35;;
17340;SDS011;8788;49.930;8.660;2024-02-15T03:50:18;5.03;;;2.42;;
17340;SDS011;8788;49.930;8.660;2024-02-15T03:52:48;3.88;;;2.75;;
17340;SDS011;8788;49.930;8.660;2024-02-15T03:55:15;4.78;;;2.40;;
17340;SDS011;8788;49.930;8.660;2024-02-15T03:57:43;3.42;;;2.10;;
17340;SDS011;8788;49.930;8.660;2024-02-15T04:00:11;4.47;;;2.60;;
17340;SDS011;8788;49.930;8.660;2024-02-15T04:02:39;5.22;;;2.60;;
17340;SDS011;8788;49.930;8.660;2024-02-15T04:05:07;3.33;;;1.90;;
17340;SDS011;8788;49.930;8.660;2024-02-15T04:07:37;3.05;;;2.20;;
17340;SDS011;8788;49.930;8.660;2024-02-15T04:10:06;2.45;;;2.22;;
17340;SDS011;8788;49.930;8.660;2024-02-15T04:12:34;6.65;;;2.70;;
17340;SDS011;8788;49.930;8.660;2024-02-15T04:15:01;3.83;;;2.72;;
17340;SDS011;8788;49.930;8.660;2024-02-15T04:17:36;3.03;;;1.92;;
17340;SDS011;8788;49.930;8.660;2024-02-15T04:20:04;4.78;;;2.58;;
17340;SDS011;8788;49.930;8.660;2024-02-15T04:22:32;4.22;;;2.25;;
17340;SDS011;8788;49.930;8.660;2024-02-15T04:25:02;3.88;;;2.63;;
17340;SDS011;8788;49.930;8.660;2024-02-15T04:27:30;3.13;;;2.17;;
17340;SDS011;8788;49.930;8.660;2024-02-15T04:29:57;3.70;;;2.42;;
17340;SDS011;8788;49.930;8.660;2024-02-15T04:32:24;3.15;;;2.10;;
17340;SDS011;8788;49.930;8.660;2024-02-15T04:34:51;5.25;;;2.70;;
17340;SDS011;8788;49.930;8.660;2024-02-15T04:37:18;4.88;;;2.33;;
17340;SDS011;8788;49.930;8.660;2024-02-15T04:39:45;3.70;;;2.20;;
17340;SDS011;8788;49.930;8.660;2024-02-15T04:42:13;4.18;;;2.05;;
17340;SDS011;8788;49.930;8.660;2024-02-15T04:44:43;5.60;;;2.65;;
17340;SDS011;8788;49.930;8.660;2024-02-15T04:47:10;8.75;;;2.67;;
17340;SDS011;8788;49.930;8.660;2024-02-15T04:49:37;2.90;;;2.60;;
17340;SDS011;8788;49.930;8.660;2024-02-15T04:52:05;6.15;;;2.40;;
17340;SDS011;8788;49.930;8.660;2024-02-15T04:54:32;3.42;;;2.72;;
17340;SDS011;8788;49.930;8.660;2024-02-15T04:56:59;3.95;;;2.30;;
17340;SDS011;8788;49.930;8.660;2024-02-15T04:59:26;5.15;;;2.35;;
17340;SDS011;8788;49.930;8.660;2024-02-15T05:01:55;5.30;;;1.95;;
17340;SDS011;8788;49.930;8.660;2024-02-15T05:04:24;5.57;;;2.35;;
17340;SDS011;8788;49.930;8.660;2024-02-15T05:06:51;2.85;;;2.13;;
17340;SDS011;8788;49.930;8.660;2024-02-15T05:09:19;4.50;;;2.38;;
17340;SDS011;8788;49.930;8.660;2024-02-15T05:11:47;4.07;;;2.60;;
17340;SDS011;8788;49.930;8.660;2024-02-15T05:14:15;3.17;;;2.05;;
17340;SDS011;8788;49.930;8.660;2024-02-15T05:16:44;4.35;;;1.90;;
17340;SDS011;8788;49.930;8.660;2024-02-15T05:19:14;5.57;;;2.30;;
17340;SDS011;8788;49.930;8.660;2024-02-15T05:21:42;8.57;;;2.90;;
17340;SDS011;8788;49.930;8.660;2024-02-15T05:24:11;4.07;;;2.05;;
17340;SDS011;8788;49.930;8.660;2024-02-15T05:26:39;4.93;;;2.05;;
17340;SDS011;8788;49.930;8.660;2024-02-15T05:29:08;3.35;;;1.55;;
17340;SDS011;8788;49.930;8.660;2024-02-15T05:31:36;5.95;;;2.25;;
17340;SDS011;8788;49.930;8.660;2024-02-15T05:34:05;5.97;;;2.33;;
17340;SDS011;8788;49.930;8.660;2024-02-15T05:36:37;2.58;;;1.95;;
17340;SDS011;8788;49.930;8.660;2024-02-15T05:39:05;6.28;;;2.33;;
17340;SDS011;8788;49.930;8.660;2024-02-15T05:41:32;6.80;;;2.70;;
17340;SDS011;8788;49.930;8.660;2024-02-15T05:43:59;2.00;;;1.73;;
17340;SDS011;8788;49.930;8.660;2024-02-15T05:46:26;5.30;;;2.15;;
17340;SDS011;8788;49.930;8.660;2024-02-15T05:48:54;12.70;;;2.53;;
17340;SDS011;8788;49.930;8.660;2024-02-15T05:51:21;3.15;;;1.95;;
17340;SDS011;8788;49.930;8.660;2024-02-15T05:53:50;4.72;;;2.20;;
17340;SDS011;8788;49.930;8.660;2024-02-15T05:56:20;7.60;;;2.35;;
17340;SDS011;8788;49.930;8.660;2024-02-15T05:58:47;5.47;;;1.90;;
17340;SDS011;8788;49.930;8.660;2024-02-15T06:01:14;2.35;;;1.58;;
17340;SDS011;8788;49.930;8.660;2024-02-15T06:03:41;5.90;;;2.10;;
17340;SDS011;8788;49.930;8.660;2024-02-15T06:06:10;3.95;;;1.98;;
17340;SDS011;8788;49.930;8.660;2024-02-15T06:08:37;3.20;;;1.90;;
17340;SDS011;8788;49.930;8.660;2024-02-15T06:11:06;2.88;;;1.90;;
17340;SDS011;8788;49.930;8.660;2024-02-15T06:13:34;6.35;;;2.25;;
17340;SDS011;8788;49.930;8.660;2024-02-15T06:16:01;6.00;;;2.15;;
17340;SDS011;8788;49.930;8.660;2024-02-15T06:18:34;3.78;;;1.60;;
17340;SDS011;8788;49.930;8.660;2024-02-15T06:21:02;3.70;;;1.63;;
17340;SDS011;8788;49.930;8.660;2024-02-15T06:23:32;5.53;;;1.90;;
17340;SDS011;8788;49.930;8.660;2024-02-15T06:25:59;3.65;;;1.88;;
17340;SDS011;8788;49.930;8.660;2024-02-15T06:28:29;5.05;;;2.28;;
17340;SDS011;8788;49.930;8.660;2024-02-15T06:31:13;2.78;;;1.70;;
17340;SDS011;8788;49.930;8.660;2024-02-15T06:33:58;2.53;;;1.50;;
17340;SDS011;8788;49.930;8.660;2024-02-15T06:39:29;4.82;;;2.10;;
17340;SDS011;8788;49.930;8.660;2024-02-15T06:42:07;1.83;;;1.42;;
17340;SDS011;8788;49.930;8.660;2024-02-15T06:44:36;2.95;;;1.63;;
17340;SDS011;8788;49.930;8.660;2024-02-15T06:47:03;2.17;;;1.95;;
17340;SDS011;8788;49.930;8.660;2024-02-15T06:49:31;4.10;;;1.80;;
17340;SDS011;8788;49.930;8.660;2024-02-15T06:51:59;4.95;;;2.47;;
17340;SDS011;8788;49.930;8.660;2024-02-15T06:54:27;3.30;;;1.95;;
17340;SDS011;8788;49.930;8.660;2024-02-15T06:56:55;9.32;;;2.30;;
17340;SDS011;8788;49.930;8.660;2024-02-15T06:59:22;3.63;;;2.38;;
17340;SDS011;8788;49.930;8.660;2024-02-15T07:01:50;5.97;;;2.30;;
17340;SDS011;8788;49.930;8.660;2024-02-15T07:04:18;3.53;;;2.00;;
17340;SDS011;8788;49.930;8.660;2024-02-15T07:06:45;5.75;;;2.35;;
17340;SDS011;8788;49.930;8.660;2024-02-15T07:09:13;3.92;;;2.58;;
17340;SDS011;8788;49.930;8.660;2024-02-15T07:11:43;4.47;;;2.47;;
17340;SDS011;8788;49.930;8.660;2024-02-15T07:14:11;6.07;;;2.40;;
17340;SDS011;8788;49.930;8.660;2024-02-15T07:16:38;5.50;;;2.35;;
17340;SDS011;8788;49.930;8.660;2024-02-15T07:19:07;7.05;;;2.15;;
17340;SDS011;8788;49.930;8.660;2024-02-15T07:21:35;3.15;;;1.85;;
17340;SDS011;8788;49.930;8.660;2024-02-15T07:24:03;5.38;;;2.20;;
17340;SDS011;8788;49.930;8.660;2024-02-15T07:26:31;6.88;;;2.10;;
17340;SDS011;8788;49.930;8.660;2024-02-15T07:29:00;5.88;;;2.80;;
17340;SDS011;8788;49.930;8.660;2024-02-15T07:31:31;5.82;;;2.30;;
17340;SDS011;8788;49.930;8.660;2024-02-15T07:33:59;5.65;;;2.60;;
17340;SDS011;8788;49.930;8.660;2024-02-15T07:36:27;6.05;;;2.15;;
17340;SDS011;8788;49.930;8.660;2024-02-15T07:38:55;2.83;;;2.00;;
17340;SDS011;8788;49.930;8.660;2024-02-15T07:41:26;2.78;;;2.05;;
17340;SDS011;8788;49.930;8.660;2024-02-15T07:43:53;6.53;;;1.77;;
17340;SDS011;8788;49.930;8.660;2024-02-15T07:46:21;6.18;;;2.35;;
17340;SDS011;8788;49.930;8.660;2024-02-15T07:48:49;4.28;;;2.05;;
17340;SDS011;8788;49.930;8.660;2024-02-15T07:51:16;7.10;;;2.00;;
17340;SDS011;8788;49.930;8.660;2024-02-15T07:53:46;6.32;;;2.20;;
17340;SDS011;8788;49.930;8.660;2024-02-15T07:56:14;2.70;;;1.92;;
17340;SDS011;8788;49.930;8.660;2024-02-15T07:58:42;3.50;;;2.10;;
17340;SDS011;8788;49.930;8.660;2024-02-15T08:01:11;4.13;;;1.83;;
17340;SDS011;8788;49.930;8.660;2024-02-15T08:03:39;3.88;;;2.03;;
17340;SDS011;8788;49.930;8.660;2024-02-15T08:06:09;4.93;;;2.00;;
17340;SDS011;8788;49.930;8.660;2024-02-15T08:08:38;7.93;;;1.90;;
17340;SDS011;8788;49.930;8.660;2024-02-15T08:11:07;4.15;;;1.95;;
17340;SDS011;8788;49.930;8.660;2024-02-15T08:13:40;8.23;;;2.25;;
17340;SDS011;8788;49.930;8.660;2024-02-15T08:16:09;4.00;;;1.80;;
17340;SDS011;8788;49.930;8.660;2024-02-15T08:18:37;4.00;;;1.85;;
17340;SDS011;8788;49.930;8.660;2024-02-15T08:21:05;2.05;;;1.48;;
17340;SDS011;8788;49.930;8.660;2024-02-15T08:23:32;5.82;;;1.85;;
17340;SDS011;8788;49.930;8.660;2024-02-15T08:25:59;4.07;;;2.10;;
17340;SDS011;8788;49.930;8.660;2024-02-15T08:28:27;2.70;;;1.48;;
17340;SDS011;8788;49.930;8.660;2024-02-15T08:30:55;3.25;;;1.45;;
17340;SDS011;8788;49.930;8.660;2024-02-15T08:33:22;6.07;;;1.85;;
17340;SDS011;8788;49.930;8.660;2024-02-15T08:35:49;5.55;;;1.63;;
17340;SDS011;8788;49.930;8.660;2024-02-15T08:38:20;8.23;;;1.60;;
17340;SDS011;8788;49.930;8.660;2024-02-15T08:40:47;3.20;;;1.65;;
17340;SDS011;8788;49.930;8.660;2024-02-15T08:43:14;4.80;;;1.58;;
17340;SDS011;8788;49.930;8.660;2024-02-15T08:45:43;3.50;;;1.88;;
17340;SDS011;8788;49.930;8.660;2024-02-15T08:48:10;5.78;;;1.63;;
17340;SDS011;8788;49.930;8.660;2024-02-15T08:50:39;3.13;;;1.83;;
17340;SDS011;8788;49.930;8.660;2024-02-15T08:53:07;3.75;;;1.70;;
17340;SDS011;8788;49.930;8.660;2024-02-15T08:55:34;5.82;;;1.63;;
17340;SDS011;8788;49.930;8.660;2024-02-15T08:58:02;4.60;;;1.63;;
17340;SDS011;8788;49.930;8.660;2024-02-15T09:00:29;1.70;;;1.48;;
17340;SDS011;8788;49.930;8.660;2024-02-15T09:02:58;5.20;;;1.85;;
17340;SDS011;8788;49.930;8.660;2024-02-15T09:05:25;3.75;;;1.58;;
17340;SDS011;8788;49.930;8.660;2024-02-15T09:07:52;3.15;;;1.73;;
17340;SDS011;8788;49.930;8.660;2024-02-15T09:10:20;1.60;;;1.45;;
17340;SDS011;8788;49.930;8.660;2024-02-15T09:12:48;4.20;;;1.83;;
17340;SDS011;8788;49.930;8.660;2024-02-15T09:15:15;7.55;;;1.77;;
17340;SDS011;8788;49.930;8.660;2024-02-15T09:17:43;4.57;;;2.00;;
17340;SDS011;8788;49.930;8.660;2024-02-15T09:20:12;3.63;;;2.40;;
17340;SDS011;8788;49.930;8.660;2024-02-15T09:22:46;5.45;;;2.20;;
17340;SDS011;8788;49.930;8.660;2024-02-15T09:25:14;2.63;;;1.85;;
17340;SDS011;8788;49.930;8.660;2024-02-15T09:27:42;5.93;;;2.10;;
17340;SDS011;8788;49.930;8.660;2024-02-15T09:30:11;2.42;;;1.95;;
17340;SDS011;8788;49.930;8.660;2024-02-15T09:32:39;3.75;;;2.17;;
17340;SDS011;8788;49.930;8.660;2024-02-15T09:35:06;4.13;;;2.17;;
17340;SDS011;8788;49.930;8.660;2024-02-15T09:37:36;4.80;;;1.77;;
17340;SDS011;8788;49.930;8.660;2024-02-15T09:40:07;3.13;;;1.65;;
17340;SDS011;8788;49.930;8.660;2024-02-15T09:42:35;6.20;;;2.45;;
17340;SDS011;8788;49.930;8.660;2024-02-15T09:45:05;4.60;;;1.80;;
17340;SDS011;8788;49.930;8.660;2024-02-15T09:47:36;4.00;;;1.95;;
17340;SDS011;8788;49.930;8.660;2024-02-15T09:50:05;2.17;;;1.50;;
17340;SDS011;8788;49.930;8.660;2024-02-15T09:52:33;3.22;;;1.60;;
17340;SDS011;8788;49.930;8.660;2024-02-15T09:55:02;3.58;;;2.00;;
17340;SDS011;8788;49.930;8.660;2024-02-15T09:57:30;4.72;;;2.08;;
17340;SDS011;8788;49.930;8.660;2024-02-15T09:59:58;2.85;;;1.63;;
17340;SDS011;8788;49.930;8.660;2024-02-15T10:02:25;4.10;;;2.33;;
17340;SDS011;8788;49.930;8.660;2024-02-15T10:04:53;2.53;;;1.45;;
17340;SDS011;8788;49.930;8.660;2024-02-15T10:07:22;2.65;;;1.63;;
17340;SDS011;8788;49.930;8.660;2024-02-15T10:09:51;2.58;;;1.85;;
17340;SDS011;8788;49.930;8.660;2024-02-15T10:12:18;6.38;;;2.20;;
17340;SDS011;8788;49.930;8.660;2024-02-15T10:14:47;3.13;;;1.40;;
17340;SDS011;8788;49.930;8.660;2024-02-15T10:17:17;3.05;;;1.65;;
17340;SDS011;8788;49.930;8.660;2024-02-15T10:19:45;1.58;;;1.30;;
17340;SDS011;8788;49.930;8.660;2024-02-15T10:22:29;3.40;;;1.45;;
17340;SDS011;8788;49.930;8.660;2024-02-15T10:25:11;3.40;;;1.23;;
17340;SDS011;8788;49.930;8.660;2024-02-15T10:27:39;5.10;;;1.92;;
17340;SDS011;8788;49.930;8.660;2024-02-15T10:30:16;5.55;;;1.80;;
17340;SDS011;8788;49.930;8.660;2024-02-15T10:32:44;2.78;;;1.25;;
17340;SDS011;8788;49.930;8.660;2024-02-15T10:35:22;2.58;;;1.70;;
17340;SDS011;8788;49.930;8.660;2024-02-15T10:37:49;2.40;;;1.55;;
17340;SDS011;8788;49.930;8.660;2024-02-15T10:40:19;2.40;;;1.15;;
17340;SDS011;8788;49.930;8.660;2024-02-15T10:42:47;1.50;;;1.23;;
17340;SDS011;8788;49.930;8.660;2024-02-15T10:45:15;1.88;;;1.23;;
17340;SDS011;8788;49.930;8.660;2024-02-15T10:47:44;5.85;;;1.17;;
17340;SDS011;8788;49.930;8.660;2024-02-15T10:50:12;3.13;;;1.30;;
17340;SDS011;8788;49.930;8.660;2024-02-15T10:52:43;3.40;;;1.50;;
17340;SDS011;8788;49.930;8.660;2024-02-15T10:55:21;4.80;;;1.50;;
17340;SDS011;8788;49.930;8.660;2024-02-15T10:57:59;6.38;;;1.25;;
17340;SDS011;8788;49.930;8.660;2024-02-15T11:00:29;3.63;;;1.45;;
17340;SDS011;8788;49.930;8.660;2024-02-15T11:03:00;6.18;;;1.33;;
17340;SDS011;8788;49.930;8.660;2024-02-15T11:05:31;3.45;;;1.63;;
17340;SDS011;8788;49.930;8.660;2024-02-15T11:08:02;4.00;;;1.50;;
17340;SDS011;8788;49.930;8.660;2024-02-15T11:10:31;2.63;;;1.48;;
17340;SDS011;8788;49.930;8.660;2024-02-15T11:12:59;2.72;;;1.40;;
17340;SDS011;8788;49.930;8.660;2024-02-15T11:15:40;4.85;;;1.77;;
17340;SDS011;8788;49.930;8.660;2024-02-15T11:18:10;3.05;;;1.50;;
17340;SDS011;8788;49.930;8.660;2024-02-15T11:20:47;5.15;;;1.95;;
17340;SDS011;8788;49.930;8.660;2024-02-15T11:23:24;1.50;;;1.38;;
17340;SDS011;8788;49.930;8.660;2024-02-15T11:25:57;3.92;;;2.00;;
17340;SDS011;8788;49.930;8.660;2024-02-15T11:28:43;3.17;;;1.40;;
17340;SDS011;8788;49.930;8.660;2024-02-15T11:40:11;3.70;;;1.70;;
17340;SDS011;8788;49.930;8.660;2024-02-15T11:42:39;2.28;;;1.40;;
17340;SDS011;8788;49.930;8.660;2024-02-15T11:45:07;6.57;;;2.30;;
17340;SDS011;8788;49.930;8.660;2024-02-15T11:47:36;2.30;;;1.63;;
17340;SDS011;8788;49.930;8.660;2024-02-15T11:50:05;6.25;;;1.52;;
17340;SDS011;8788;49.930;8.660;2024-02-15T11:52:37;2.28;;;1.38;;
17340;SDS011;8788;49.930;8.660;2024-02-15T11:55:06;3.70;;;1.60;;
17340;SDS011;8788;49.930;8.660;2024-02-15T11:57:35;3.45;;;1.38;;
17340;SDS011;8788;49.930;8.660;2024-02-15T12:00:23;4.55;;;1.70;;
17340;SDS011;8788;49.930;8.660;2024-02-15T12:03:08;4.97;;;1.38;;
17340;SDS011;8788;49.930;8.660;2024-02-15T12:05:54;2.63;;;1.40;;
17340;SDS011;8788;49.930;8.660;2024-02-15T12:08:38;3.10;;;1.20;;
17340;SDS011;8788;49.930;8.660;2024-02-15T12:11:23;2.38;;;1.33;;
17340;SDS011;8788;49.930;8.660;2024-02-15T12:14:11;2.38;;;1.30;;
17340;SDS011;8788;49.930;8.660;2024-02-15T12:17:04;2.70;;;1.30;;
17340;SDS011;8788;49.930;8.660;2024-02-15T12:19:49;3.00;;;1.25;;
17340;SDS011;8788;49.930;8.660;2024-02-15T12:22:19;3.25;;;1.50;;
17340;SDS011;8788;49.930;8.660;2024-02-15T12:24:55;5.57;;;1.02;;
17340;SDS011;8788;49.930;8.660;2024-02-15T12:27:23;3.38;;;1.00;;
17340;SDS011;8788;49.930;8.660;2024-02-15T12:29:53;3.35;;;1.00;;
17340;SDS011;8788;49.930;8.660;2024-02-15T12:32:23;2.20;;;0.98;;
17340;SDS011;8788;49.930;8.660;2024-02-15T12:34:50;2.47;;;1.20;;
17340;SDS011;8788;49.930;8.660;2024-02-15T12:37:18;3.92;;;0.90;;
17340;SDS011;8788;49.930;8.660;2024-02-15T12:39:47;4.75;;;1.20;;
17340;SDS011;8788;49.930;8.660;2024-02-15T12:42:15;2.90;;;1.65;;
17340;SDS011;8788;49.930;8.660;2024-02-15T12:44:45;1.77;;;0.93;;
17340;SDS011;8788;49.930;8.660;2024-02-15T12:47:19;4.95;;;1.25;;
17340;SDS011;8788;49.930;8.660;2024-02-15T12:49:48;2.97;;;1.02;;
17340;SDS011;8788;49.930;8.660;2024-02-15T12:52:33;3.03;;;0.77;;
17340;SDS011;8788;49.930;8.660;2024-02-15T12:55:07;3.10;;;1.00;;
17340;SDS011;8788;49.930;8.660;2024-02-15T12:57:36;3.28;;;0.95;;
17340;SDS011;8788;49.930;8.660;2024-02-15T13:00:06;1.98;;;0.90;;
17340;SDS011;8788;49.930;8.660;2024-02-15T13:02:42;2.50;;;0.90;;
17340;SDS011;8788;49.930;8.660;2024-02-15T13:05:11;2.08;;;0.80;;
17340;SDS011;8788;49.930;8.660;2024-02-15T13:07:39;2.55;;;0.80;;
17340;SDS011;8788;49.930;8.660;2024-02-15T13:10:06;2.60;;;1.02;;
17340;SDS011;8788;49.930;8.660;2024-02-15T13:12:34;4.43;;;1.05;;
17340;SDS011;8788;49.930;8.660;2024-02-15T13:15:03;4.28;;;0.82;;
17340;SDS011;8788;49.930;8.660;2024-02-15T13:17:32;3.05;;;0.98;;
17340;SDS011;8788;49.930;8.660;2024-02-15T13:20:00;2.38;;;0.60;;
17340;SDS011;8788;49.930;8.660;2024-02-15T13:22:37;2.05;;;0.93;;
17340;SDS011;8788;49.930;8.660;2024-02-15T13:25:05;3.13;;;1.23;;
17340;SDS011;8788;49.930;8.660;2024-02-15T13:27:34;4.20;;;1.17;;
17340;SDS011;8788;49.930;8.660;2024-02-15T13:30:02;2.92;;;0.90;;
17340;SDS011;8788;49.930;8.660;2024-02-15T13:32:29;2.65;;;0.90;;
17340;SDS011;8788;49.930;8.660;2024-02-15T13:34:56;2.03;;;0.95;;
17340;SDS011;8788;49.930;8.660;2024-02-15T13:37:26;3.65;;;0.82;;
17340;SDS011;8788;49.930;8.660;2024-02-15T13:39:55;2.35;;;0.98;;
17340;SDS011;8788;49.930;8.660;2024-02-15T13:42:22;3.13;;;1.05;;
17340;SDS011;8788;49.930;8.660;2024-02-15T13:44:49;2.25;;;0.90;;
17340;SDS011;8788;49.930;8.660;2024-02-15T13:47:16;3.90;;;1.30;;
17340;SDS011;8788;49.930;8.660;2024-02-15T13:49:43;2.70;;;1.33;;
17340;SDS011;8788;49.930;8.660;2024-02-15T13:52:10;3.65;;;1.10;;
17340;SDS011;8788;49.930;8.660;2024-02-15T13:54:37;4.35;;;1.52;;
17340;SDS011;8788;49.930;8.660;2024-02-15T13:57:06;4.35;;;1.30;;
17340;SDS011;8788;49.930;8.660;2024-02-15T13:59:33;3.95;;;1.13;;
17340;SDS011;8788;49.930;8.660;2024-02-15T14:02:00;5.65;;;1.40;;
17340;SDS011;8788;49.930;8.660;2024-02-15T14:04:29;2.03;;;1.13;;
17340;SDS011;8788;49.930;8.660;2024-02-15T14:06:57;1.17;;;0.93;;
17340;SDS011;8788;49.930;8.660;2024-02-15T14:09:23;2.05;;;0.98;;
17340;SDS011;8788;49.930;8.660;2024-02-15T14:11:51;2.20;;;0.68;;
17340;SDS011;8788;49.930;8.660;2024-02-15T14:14:20;2.45;;;0.77;;
17340;SDS011;8788;49.930;8.660;2024-02-15T14:16:47;3.15;;;0.73;;
17340;SDS011;8788;49.930;8.660;2024-02-15T14:19:14;2.40;;;0.90;;
17340;SDS011;8788;49.930;8.660;2024-02-15T14:21:42;9.55;;;1.40;;
17340;SDS011;8788;49.930;8.660;2024-02-15T14:24:10;3.20;;;1.08;;
17340;SDS011;8788;49.930;8.660;2024-02-15T14:26:38;1.92;;;0.90;;
17340;SDS011;8788;49.930;8.660;2024-02-15T14:29:06;2.13;;;1.10;;
17340;SDS011;8788;49.930;8.660;2024-02-15T14:31:36;1.98;;;1.35;;
17340;SDS011;8788;49.930;8.660;2024-02-15T14:34:20;2.25;;;1.10;;
17340;SDS011;8788;49.930;8.660;2024-02-15T14:36:50;3.13;;;1.10;;
17340;SDS011;8788;49.930;8.660;2024-02-15T14:39:17;3.80;;;1.00;;
17340;SDS011;8788;49.930;8.660;2024-02-15T14:41:44;4.32;;;1.10;;
17340;SDS011;8788;49.930;8.660;2024-02-15T14:44:11;3.60;;;1.00;;
17340;SDS011;8788;49.930;8.660;2024-02-15T14:46:40;2.92;;;1.50;;
17340;SDS011;8788;49.930;8.660;2024-02-15T14:49:07;4.47;;;1.50;;
17340;SDS011;8788;49.930;8.660;2024-02-15T14:51:34;1.90;;;1.00;;
17340;SDS011;8788;49.930;8.660;2024-02-15T14:54:04;3.95;;;1.38;;
17340;SDS011;8788;49.930;8.660;2024-02-15T14:56:31;2.83;;;1.02;;
17340;SDS011;8788;49.930;8.660;2024-02-15T14:58:59;3.25;;;1.00;;
17340;SDS011;8788;49.930;8.660;2024-02-15T15:01:26;3.42;;;1.10;;
17340;SDS011;8788;49.930;8.660;2024-02-15T15:03:56;2.17;;;1.10;;
17340;SDS011;8788;49.930;8.660;2024-02-15T15:06:24;1.60;;;0.98;;
17340;SDS011;8788;49.930;8.660;2024-02-15T15:09:09;3.33;;;1.23;;
17340;SDS011;8788;49.930;8.660;2024-02-15T15:11:54;2.88;;;0.98;;
17340;SDS011;8788;49.930;8.660;2024-02-15T15:14:39;3.60;;;1.10;;
17340;SDS011;8788;49.930;8.660;2024-02-15T15:17:07;2.88;;;1.58;;
17340;SDS011;8788;49.930;8.660;2024-02-15T15:19:36;3.15;;;1.10;;
17340;SDS011;8788;49.930;8.660;2024-02-15T15:22:04;3.80;;;1.23;;
17340;SDS011;8788;49.930;8.660;2024-02-15T15:24:32;1.73;;;0.98;;